createdAt,value
2022-10-25T00:01:20.816Z,87.52
2022-10-25T00:03:47.319Z,87.25
2022-10-25T00:06:14.103Z,86.97
2022-10-25T00:08:40.868Z,87.35
2022-10-25T00:11:08.566Z,87.68
2022-10-25T00:13:34.987Z,87.91
2022-10-25T00:16:01.412Z,88.65
2022-10-25T00:18:28.207Z,89.07
2022-10-25T00:20:54.590Z,89.85
2022-10-25T00:23:21.134Z,89.79
2022-10-25T00:25:47.496Z,89.77
2022-10-25T00:28:16.848Z,90.72
2022-10-25T00:30:43.241Z,90.51
2022-10-25T00:33:09.688Z,90.18
2022-10-25T00:35:36.961Z,90.25
2022-10-25T00:38:03.453Z,90.45
2022-10-25T00:40:29.814Z,90.22
2022-10-25T00:42:56.247Z,90.23
2022-10-25T00:45:25.197Z,90.39
2022-10-25T00:48:04.030Z,91.43
2022-10-25T00:50:42.895Z,91.62
2022-10-25T00:53:16.600Z,91.50
2022-10-25T00:55:47.265Z,91.51
2022-10-25T00:58:18.501Z,91.81
2022-10-25T01:00:45.909Z,91.71
2022-10-25T01:03:14.883Z,91.97
2022-10-25T01:05:41.813Z,91.74
2022-10-25T01:08:08.454Z,91.83
2022-10-25T01:10:34.963Z,92.13
2022-10-25T01:13:02.243Z,91.91
2022-10-25T01:15:36.195Z,91.79
2022-10-25T01:18:31.303Z,92.06
2022-10-25T01:21:00.481Z,90.93
2022-10-25T01:23:35.878Z,91.03
2022-10-25T01:26:12.059Z,91.08
2022-10-25T01:29:19.532Z,90.76
2022-10-25T01:31:53.398Z,90.00
2022-10-25T01:34:48.015Z,90.61
2022-10-25T01:37:26.312Z,89.41
2022-10-25T01:40:30.945Z,89.93
2022-10-25T01:43:13.803Z,89.86
2022-10-25T01:45:53.089Z,89.43
2022-10-25T01:48:21.564Z,88.70
2022-10-25T01:50:48.521Z,88.49
2022-10-25T01:53:15.183Z,88.42
2022-10-25T01:55:56.750Z,89.43
2022-10-25T01:58:44.160Z,88.40
2022-10-25T02:01:35.201Z,89.05
2022-10-25T02:04:22.199Z,89.34
2022-10-25T02:07:18.394Z,89.32
2022-10-25T02:10:01.888Z,88.73
2022-10-25T02:12:55.695Z,89.32
2022-10-25T02:15:34.551Z,88.77
2022-10-25T02:18:04.843Z,88.10
2022-10-25T02:20:33.558Z,87.71
2022-10-25T02:23:02.922Z,87.31
2022-10-25T02:25:32.760Z,87.74
2022-10-25T02:28:02.263Z,88.39
2022-10-25T02:30:32.323Z,88.75
2022-10-25T02:32:59.316Z,89.42
2022-10-25T02:35:25.740Z,89.20
2022-10-25T02:37:52.248Z,89.24
2022-10-25T02:40:19.292Z,89.30
2022-10-25T02:42:45.702Z,89.66
2022-10-25T02:45:12.199Z,90.08
2022-10-25T02:47:38.655Z,89.82
2022-10-25T02:50:05.643Z,90.04
2022-10-25T02:52:32.135Z,89.81
2022-10-25T02:54:58.541Z,90.00
2022-10-25T02:57:24.932Z,90.11
2022-10-25T02:59:51.347Z,89.91
2022-10-25T03:02:17.696Z,89.95
2022-10-25T03:04:44.197Z,89.67
2022-10-25T03:07:10.592Z,89.54
2022-10-25T03:09:36.929Z,89.48
2022-10-25T03:12:03.447Z,89.25
2022-10-25T03:14:29.795Z,89.43
2022-10-25T03:16:56.149Z,89.29
2022-10-25T03:19:22.486Z,88.61
2022-10-25T03:21:48.842Z,88.69
2022-10-25T03:24:15.345Z,88.58
2022-10-25T03:26:41.710Z,88.40
2022-10-25T03:29:08.302Z,88.28
2022-10-25T03:31:34.671Z,88.00
2022-10-25T03:34:01.139Z,87.58
2022-10-25T03:36:27.736Z,87.58
2022-10-25T03:38:54.432Z,87.57
2022-10-25T03:41:20.799Z,87.20
2022-10-25T03:43:47.192Z,87.34
2022-10-25T03:46:13.938Z,86.97
2022-10-25T03:48:40.425Z,86.70
2022-10-25T03:51:06.860Z,86.48
2022-10-25T03:53:33.529Z,86.17
2022-10-25T03:55:59.970Z,85.98
2022-10-25T03:58:26.393Z,85.76
2022-10-25T04:00:52.821Z,85.50
2022-10-25T04:03:19.209Z,85.14
2022-10-25T04:05:45.587Z,84.93
2022-10-25T04:08:11.951Z,84.67
2022-10-25T04:10:38.420Z,84.26
2022-10-25T04:13:04.805Z,83.68
2022-10-25T04:15:31.632Z,83.69
2022-10-25T04:17:58.031Z,83.48
2022-10-25T04:20:24.487Z,83.37
2022-10-25T04:22:55.645Z,83.49
2022-10-25T04:25:23.489Z,83.04
2022-10-25T04:27:50.041Z,82.78
2022-10-25T04:30:16.808Z,82.50
2022-10-25T04:32:43.333Z,82.21
2022-10-25T04:35:10.035Z,82.33
2022-10-25T04:37:36.472Z,82.04
2022-10-25T04:40:02.896Z,82.05
2022-10-25T04:42:29.262Z,81.92
2022-10-25T04:44:55.620Z,82.10
2022-10-25T04:47:22.002Z,82.38
2022-10-25T04:49:48.384Z,82.71
2022-10-25T04:52:14.815Z,82.91
2022-10-25T04:54:41.465Z,83.30
2022-10-25T04:57:07.967Z,83.41
2022-10-25T04:59:34.350Z,83.25
2022-10-25T05:02:00.756Z,83.71
2022-10-25T05:04:27.125Z,83.28
2022-10-25T05:06:53.547Z,83.09
2022-10-25T05:09:19.918Z,83.03
2022-10-25T05:11:46.350Z,82.80
2022-10-25T05:14:14.739Z,82.53
2022-10-25T05:16:41.144Z,82.12
2022-10-25T05:19:07.540Z,82.10
2022-10-25T05:21:35.273Z,82.00
2022-10-25T05:24:02.407Z,82.28
2022-10-25T05:26:30.863Z,82.41
2022-10-25T05:29:00.110Z,82.47
2022-10-25T05:31:29.033Z,82.60
2022-10-25T05:33:57.837Z,82.57
2022-10-25T05:36:25.376Z,82.41
2022-10-25T05:38:51.932Z,82.44
2022-10-25T05:41:18.996Z,82.33
2022-10-25T05:43:45.914Z,82.47
2022-10-25T05:46:20.615Z,82.86
2022-10-25T05:48:48.897Z,82.40
2022-10-25T05:51:36.119Z,83.13
2022-10-25T05:54:13.989Z,83.34
2022-10-25T05:56:40.985Z,82.57
2022-10-25T05:59:10.795Z,82.50
2022-10-25T06:01:40.020Z,82.65
2022-10-25T06:04:06.952Z,82.48
2022-10-25T06:06:33.415Z,82.11
2022-10-25T06:09:01.179Z,82.27
2022-10-25T06:11:28.918Z,82.33
2022-10-25T06:13:55.738Z,82.39
2022-10-25T06:16:22.402Z,82.82
2022-10-25T06:18:49.051Z,83.31
2022-10-25T06:21:18.579Z,83.57
2022-10-25T06:23:45.915Z,83.78
2022-10-25T06:26:15.147Z,84.33
2022-10-25T06:28:42.015Z,84.36
2022-10-25T06:31:14.330Z,85.16
2022-10-25T06:33:41.073Z,85.10
2022-10-25T06:36:13.182Z,85.87
2022-10-25T06:38:39.776Z,86.30
2022-10-25T06:41:11.392Z,86.81
2022-10-25T06:43:38.810Z,86.67
2022-10-25T06:46:10.271Z,87.90
2022-10-25T06:48:37.318Z,87.37
2022-10-25T06:51:09.811Z,88.12
2022-10-25T06:53:37.441Z,87.99
2022-10-25T06:56:09.236Z,88.13
2022-10-25T06:58:38.701Z,88.03
2022-10-25T07:01:11.404Z,88.31
2022-10-25T07:03:38.049Z,88.30
2022-10-25T07:06:12.829Z,88.95
2022-10-25T07:08:41.747Z,88.71
2022-10-25T07:11:13.254Z,88.77
2022-10-25T07:13:39.687Z,88.97
2022-10-25T07:16:07.996Z,89.19
2022-10-25T07:18:35.315Z,88.85
2022-10-25T07:21:21.769Z,88.97
2022-10-25T07:23:49.996Z,88.78
2022-10-25T07:26:23.886Z,89.46
2022-10-25T07:28:52.006Z,88.73
2022-10-25T07:31:20.935Z,88.67
2022-10-25T07:33:48.655Z,88.53
2022-10-25T07:36:15.037Z,88.78
2022-10-25T07:38:41.499Z,88.41
2022-10-25T07:41:08.977Z,88.24
2022-10-25T07:43:35.589Z,87.97
2022-10-25T07:46:02.551Z,87.36
2022-10-25T07:48:32.008Z,87.30
2022-10-25T07:51:02.861Z,86.79
2022-10-25T07:53:29.218Z,85.94
2022-10-25T07:55:55.705Z,85.70
2022-10-25T07:58:22.403Z,85.45
2022-10-25T08:00:48.945Z,85.28
2022-10-25T08:03:17.232Z,85.01
2022-10-25T08:05:45.409Z,84.72
2022-10-25T08:08:12.845Z,84.62
2022-10-25T08:10:41.430Z,84.70
2022-10-25T08:13:07.808Z,84.45
2022-10-25T08:15:36.232Z,84.37
2022-10-25T08:18:04.101Z,83.97
2022-10-25T08:20:56.409Z,83.89
2022-10-25T08:23:18.398Z,83.72
2022-10-25T08:25:45.160Z,83.69
2022-10-25T08:28:11.734Z,83.47
2022-10-25T08:30:38.191Z,82.62
2022-10-25T08:33:07.279Z,82.33
2022-10-25T08:35:35.887Z,82.05
2022-10-25T08:38:04.297Z,81.68
2022-10-25T08:41:26.543Z,81.92
2022-10-25T08:44:14.035Z,81.64
2022-10-25T08:47:00.457Z,81.64
2022-10-25T08:49:41.214Z,80.58
2022-10-25T08:52:18.666Z,80.90
2022-10-25T08:54:46.832Z,79.94
2022-10-25T08:57:24.244Z,80.42
2022-10-25T08:59:54.687Z,79.89
2022-10-25T09:02:43.112Z,79.96
2022-10-25T09:05:36.736Z,79.85
2022-10-25T09:08:17.581Z,79.88
2022-10-25T09:10:53.157Z,79.57
2022-10-25T09:13:31.492Z,78.78
2022-10-25T09:16:14.243Z,78.27
2022-10-25T09:18:50.991Z,77.70
2022-10-25T09:21:48.070Z,77.84
2022-10-25T09:24:22.921Z,76.78
2022-10-25T09:26:58.461Z,76.64
2022-10-25T09:29:50.816Z,76.50
2022-10-25T09:32:29.618Z,75.94
2022-10-25T09:34:56.629Z,75.23
2022-10-25T09:37:30.498Z,76.26
2022-10-25T09:40:00.907Z,75.86
2022-10-25T09:42:33.979Z,75.85
2022-10-25T09:45:06.649Z,75.73
2022-10-25T09:48:18.154Z,74.82
2022-10-25T09:50:53.506Z,74.02
2022-10-25T09:53:23.099Z,72.47
2022-10-25T09:56:03.364Z,72.63
2022-10-25T09:58:37.833Z,71.89
2022-10-25T10:01:07.594Z,69.69
2022-10-25T10:03:36.323Z,69.24
2022-10-25T10:06:16.139Z,68.66
2022-10-25T10:08:49.383Z,68.03
2022-10-25T10:11:18.504Z,66.14
2022-10-25T10:13:50.617Z,66.16
2022-10-25T10:16:38.500Z,66.45
2022-10-25T10:19:20.928Z,66.27
2022-10-25T10:21:51.199Z,66.08
2022-10-25T10:24:23.656Z,66.43
2022-10-25T10:26:55.489Z,66.20
2022-10-25T10:29:33.070Z,65.77
2022-10-25T10:32:01.647Z,65.22
2022-10-25T10:34:51.122Z,65.76
2022-10-25T10:37:22.826Z,65.79
2022-10-25T10:39:59.557Z,65.44
2022-10-25T10:42:36.754Z,65.88
2022-10-25T10:45:09.065Z,64.80
2022-10-25T10:47:41.794Z,64.15
2022-10-25T10:50:25.540Z,64.85
2022-10-25T10:53:17.734Z,64.06
2022-10-25T10:55:44.038Z,64.16
2022-10-25T10:58:24.768Z,63.58
2022-10-25T11:01:06.228Z,62.35
2022-10-25T11:03:48.922Z,62.96
2022-10-25T11:06:29.873Z,61.30
2022-10-25T11:09:19.262Z,61.78
2022-10-25T11:12:05.288Z,59.88
2022-10-25T11:14:31.884Z,59.17
2022-10-25T11:17:14.457Z,58.05
2022-10-25T11:19:54.603Z,57.44
2022-10-25T11:25:20.971Z,57.10
2022-10-25T11:28:04.592Z,57.32
2022-10-25T11:30:43.809Z,56.58
2022-10-25T11:33:21.702Z,56.87
2022-10-25T11:36:19.838Z,57.48
2022-10-25T11:38:59.065Z,58.08
2022-10-25T11:41:57.436Z,58.80
2022-10-25T11:44:35.688Z,58.13
2022-10-25T11:47:31.033Z,59.07
2022-10-25T11:50:12.564Z,59.75
2022-10-25T11:53:06.906Z,59.95
2022-10-25T11:55:48.608Z,60.17
2022-10-25T11:58:43.348Z,61.10
2022-10-25T12:01:32.493Z,61.29
2022-10-25T12:04:17.221Z,62.00
2022-10-25T12:06:52.351Z,62.27
2022-10-25T12:09:38.185Z,62.84
2022-10-25T12:12:30.313Z,64.07
2022-10-25T12:15:00.618Z,65.35
2022-10-25T12:17:31.076Z,64.45
2022-10-25T12:20:01.745Z,63.88
2022-10-25T12:22:37.716Z,63.85
2022-10-25T12:25:08.185Z,63.89
2022-10-25T12:27:36.146Z,63.99
2022-10-25T12:30:07.242Z,63.95
2022-10-25T12:32:42.674Z,64.40
2022-10-25T12:35:29.486Z,64.91
2022-10-25T12:38:00.030Z,64.55
2022-10-25T12:40:29.019Z,64.44
2022-10-25T12:43:12.877Z,65.37
2022-10-25T12:46:14.872Z,65.20
2022-10-25T12:48:44.058Z,64.35
2022-10-25T12:51:15.346Z,63.94
2022-10-25T12:54:06.241Z,63.73
2022-10-25T12:56:58.577Z,64.13
2022-10-25T12:59:46.448Z,64.12
2022-10-25T13:02:40.702Z,63.96
2022-10-25T13:05:37.024Z,64.07
2022-10-25T13:08:06.172Z,62.97
2022-10-25T13:10:39.766Z,62.12
2022-10-25T13:13:16.093Z,60.59
2022-10-25T13:15:46.410Z,59.51
2022-10-25T13:18:34.280Z,60.20
2022-10-25T13:21:02.268Z,58.33
2022-10-25T13:23:44.186Z,59.36
2022-10-25T13:26:15.995Z,58.27
2022-10-25T13:28:50.662Z,57.38
2022-10-25T13:31:35.479Z,57.76
2022-10-25T13:34:13.690Z,57.54
2022-10-25T13:37:00.947Z,57.51
2022-10-25T13:39:32.502Z,57.78
2022-10-25T13:42:20.245Z,58.31
2022-10-25T13:45:01.901Z,58.03
2022-10-25T13:47:45.894Z,58.67
2022-10-25T13:50:26.960Z,58.99
2022-10-25T13:53:26.225Z,59.57
2022-10-25T13:56:13.270Z,59.94
2022-10-25T13:58:56.316Z,59.96
2022-10-25T14:01:24.836Z,59.90
2022-10-25T14:03:52.002Z,59.94
2022-10-25T14:06:29.322Z,60.55
2022-10-25T14:09:20.009Z,60.59
2022-10-25T14:12:09.034Z,60.27
2022-10-25T14:15:16.947Z,60.39
2022-10-25T14:17:45.111Z,58.64
2022-10-25T14:20:30.398Z,59.05
2022-10-25T14:23:01.599Z,57.32
2022-10-25T14:25:42.508Z,57.54
2022-10-25T14:28:20.698Z,57.75
2022-10-25T14:30:49.341Z,57.85
2022-10-25T14:33:30.484Z,58.99
2022-10-25T14:36:26.620Z,57.98
2022-10-25T14:39:01.616Z,57.68
2022-10-25T14:41:30.948Z,57.36
2022-10-25T14:43:58.291Z,57.20
2022-10-25T14:46:27.168Z,57.47
2022-10-25T14:48:56.823Z,57.44
2022-10-25T14:51:32.321Z,57.32
2022-10-25T14:54:00.482Z,56.75
2022-10-25T14:56:29.061Z,57.36
2022-10-25T14:58:56.429Z,57.10
2022-10-25T15:01:23.771Z,57.56
2022-10-25T15:03:53.635Z,57.42
2022-10-25T15:06:23.798Z,58.19
2022-10-25T15:09:05.043Z,57.85
2022-10-25T15:11:40.695Z,58.73
2022-10-25T15:14:21.328Z,59.48
2022-10-25T15:16:49.866Z,60.02
2022-10-25T15:19:20.322Z,60.81
2022-10-25T15:21:50.134Z,61.24
2022-10-25T15:24:25.428Z,61.87
2022-10-25T15:26:59.650Z,62.89
2022-10-25T15:29:42.373Z,63.71
2022-10-25T15:32:27.542Z,64.16
2022-10-25T15:34:57.090Z,64.88
2022-10-25T15:37:25.525Z,65.56
2022-10-25T15:39:54.182Z,66.03
2022-10-25T15:42:22.574Z,66.82
2022-10-25T15:44:49.410Z,67.63
2022-10-25T15:47:34.299Z,68.63
2022-10-25T15:50:06.751Z,69.36
2022-10-25T15:52:33.325Z,69.44
2022-10-25T15:54:59.658Z,69.57
2022-10-25T15:57:27.345Z,70.15
2022-10-25T15:59:54.081Z,70.23
2022-10-25T16:02:26.232Z,70.66
2022-10-25T16:04:52.629Z,70.99
2022-10-25T16:07:19.322Z,70.96
2022-10-25T16:09:45.863Z,71.33
2022-10-25T16:12:20.974Z,71.97
2022-10-25T16:14:49.458Z,72.06
2022-10-25T16:17:15.821Z,72.38
2022-10-25T16:19:42.207Z,72.45
2022-10-25T16:22:08.754Z,72.64
2022-10-25T16:24:35.198Z,73.12
2022-10-25T16:27:01.972Z,73.28
2022-10-25T16:29:29.514Z,73.49
2022-10-25T16:31:55.848Z,73.46
2022-10-25T16:34:22.217Z,73.44
2022-10-25T16:36:50.305Z,73.81
2022-10-25T16:39:17.306Z,73.68
2022-10-25T16:41:46.474Z,74.03
2022-10-25T16:44:17.261Z,73.85
2022-10-25T16:46:44.829Z,74.01
2022-10-25T16:49:11.665Z,74.05
2022-10-25T16:51:39.226Z,74.07
2022-10-25T16:54:06.269Z,74.03
2022-10-25T16:56:32.673Z,74.22
2022-10-25T16:58:59.486Z,74.20
2022-10-25T17:01:33.845Z,74.34
2022-10-25T17:04:01.532Z,74.05
2022-10-25T17:06:40.748Z,73.81
2022-10-25T17:09:08.225Z,74.07
2022-10-25T17:11:34.673Z,74.11
2022-10-25T17:14:01.050Z,74.26
2022-10-25T17:16:27.420Z,74.10
2022-10-25T17:18:53.777Z,74.07
2022-10-25T17:21:20.150Z,74.16
2022-10-25T17:23:46.686Z,73.76
2022-10-25T17:26:13.863Z,73.94
2022-10-25T17:28:43.872Z,73.91
2022-10-25T17:31:13.350Z,74.07
2022-10-25T17:33:40.636Z,74.03
2022-10-25T17:36:10.211Z,74.28
2022-10-25T17:38:36.869Z,74.42
2022-10-25T17:41:03.753Z,74.33
2022-10-25T17:43:30.196Z,74.28
2022-10-25T17:46:04.783Z,74.62
2022-10-25T17:48:31.624Z,74.14
2022-10-25T17:51:16.209Z,74.58
2022-10-25T17:53:42.625Z,73.65
2022-10-25T17:56:18.896Z,74.24
2022-10-25T17:58:47.013Z,73.85
2022-10-25T18:01:16.865Z,73.88
2022-10-25T18:03:43.407Z,73.61
2022-10-25T18:06:13.024Z,73.70
2022-10-25T18:08:39.728Z,73.36
2022-10-25T18:11:10.421Z,73.75
2022-10-25T18:13:38.329Z,73.41
2022-10-25T18:18:38.629Z,73.70
2022-10-25T18:21:06.498Z,73.57
2022-10-25T18:23:33.646Z,73.66
2022-10-25T18:26:00.396Z,74.11
2022-10-25T18:28:27.061Z,74.49
2022-10-25T18:31:08.358Z,74.96
2022-10-25T18:33:37.305Z,75.17
2022-10-25T18:36:12.187Z,75.55
2022-10-25T18:38:38.651Z,75.14
2022-10-25T18:41:10.578Z,75.63
2022-10-25T18:43:36.918Z,75.79
2022-10-25T18:46:03.447Z,76.00
2022-10-25T18:48:29.875Z,76.61
2022-10-25T18:50:56.247Z,76.88
2022-10-25T18:53:22.959Z,76.78
2022-10-25T18:55:52.440Z,77.64
2022-10-25T18:58:19.377Z,77.71
2022-10-25T19:00:46.358Z,78.25
2022-10-25T19:03:14.011Z,78.55
2022-10-25T19:05:41.168Z,79.00
2022-10-25T19:08:09.895Z,79.49
2022-10-25T19:10:40.717Z,80.08
2022-10-25T19:13:08.577Z,79.98
2022-10-25T19:15:35.009Z,80.57
2022-10-25T19:18:01.490Z,80.53
2022-10-25T19:20:27.925Z,80.82
2022-10-25T19:22:58.504Z,80.92
2022-10-25T19:25:28.559Z,80.98
2022-10-25T19:27:55.620Z,81.13
2022-10-25T19:30:22.410Z,81.20
2022-10-25T19:32:48.918Z,82.25
2022-10-25T19:35:15.371Z,82.52
2022-10-25T19:37:41.839Z,82.65
2022-10-25T19:40:09.883Z,82.87
2022-10-25T19:42:36.262Z,83.07
2022-10-25T19:45:04.454Z,83.33
2022-10-25T19:47:30.923Z,83.08
2022-10-25T19:49:57.653Z,82.92
2022-10-25T19:52:24.097Z,83.09
2022-10-25T19:54:50.522Z,83.26
2022-10-25T19:57:16.965Z,83.54
2022-10-25T19:59:43.425Z,83.65
2022-10-25T20:02:10.133Z,83.58
2022-10-25T20:04:36.783Z,83.38
2022-10-25T20:07:05.318Z,84.00
2022-10-25T20:09:31.723Z,84.00
2022-10-25T20:11:58.126Z,84.41
2022-10-25T20:14:24.520Z,84.10
2022-10-25T20:16:50.994Z,84.19
2022-10-25T20:19:17.421Z,84.34
2022-10-25T20:21:44.001Z,84.52
2022-10-25T20:24:10.537Z,85.16
2022-10-25T20:26:39.685Z,85.40
2022-10-25T20:29:15.629Z,85.17
2022-10-25T20:31:45.036Z,85.08
2022-10-25T20:34:11.439Z,85.21
2022-10-25T20:36:38.367Z,85.67
2022-10-25T20:39:04.859Z,85.26
2022-10-25T20:41:33.924Z,85.22
2022-10-25T20:44:02.854Z,85.52
2022-10-25T20:46:29.890Z,85.04
2022-10-25T20:48:57.238Z,85.60
2022-10-25T20:51:23.890Z,85.87
2022-10-25T20:53:50.752Z,86.41
2022-10-25T20:56:19.046Z,86.48
2022-10-25T20:58:45.822Z,86.15
2022-10-25T21:01:12.449Z,86.31
2022-10-25T21:03:39.278Z,86.99
2022-10-25T21:06:07.758Z,86.91
2022-10-25T21:08:36.909Z,87.01
2022-10-25T21:11:06.638Z,86.94
2022-10-25T21:13:34.851Z,86.91
2022-10-25T21:16:12.009Z,87.51
2022-10-25T21:18:39.058Z,87.65
2022-10-25T21:21:07.956Z,87.63
2022-10-25T21:23:35.164Z,87.32
2022-10-25T21:26:04.503Z,87.37
2022-10-25T21:28:36.673Z,87.35
2022-10-25T21:31:08.443Z,87.66
2022-10-25T21:33:34.826Z,87.36
2022-10-25T21:36:10.820Z,88.29
2022-10-25T21:38:37.283Z,87.68
2022-10-25T21:41:12.562Z,88.62
2022-10-25T21:43:49.684Z,88.54
2022-10-25T21:46:17.629Z,87.83
2022-10-25T21:48:47.282Z,88.02
2022-10-25T21:51:14.410Z,87.91
2022-10-25T21:53:41.074Z,88.33
2022-10-25T21:56:10.511Z,88.47
2022-10-25T21:58:41.344Z,87.90
2022-10-25T22:01:12.518Z,88.02
2022-10-25T22:03:39.888Z,87.98
2022-10-25T22:06:07.832Z,87.92
2022-10-25T22:08:37.410Z,87.78
2022-10-25T22:11:07.319Z,87.67
2022-10-25T22:13:37.326Z,87.67
2022-10-25T22:16:09.743Z,88.25
2022-10-25T22:18:37.225Z,88.13
2022-10-25T22:21:10.062Z,88.60
2022-10-25T22:23:37.520Z,88.46
2022-10-25T22:26:06.716Z,88.73
2022-10-25T22:28:38.362Z,88.61
2022-10-25T22:31:11.957Z,88.83
2022-10-25T22:33:39.180Z,88.70
2022-10-25T22:36:15.036Z,88.63
2022-10-25T22:38:42.439Z,88.56
2022-10-25T22:41:28.027Z,89.06
2022-10-25T22:43:54.593Z,87.81
2022-10-25T22:46:25.148Z,87.77
2022-10-25T22:48:53.786Z,87.19
2022-10-25T22:51:21.506Z,86.83
2022-10-25T22:53:47.861Z,86.61
2022-10-25T22:56:15.743Z,86.33
2022-10-25T22:58:43.450Z,86.57
2022-10-25T23:01:37.619Z,87.35
2022-10-25T23:04:09.221Z,86.73
2022-10-25T23:06:38.018Z,86.60
2022-10-25T23:09:09.071Z,86.56
2022-10-25T23:11:37.617Z,86.72
2022-10-25T23:14:05.228Z,86.76
2022-10-25T23:16:31.704Z,86.61
2022-10-25T23:18:58.132Z,86.69
2022-10-25T23:21:26.738Z,87.23
2022-10-25T23:27:39.813Z,87.40
2022-10-25T23:30:09.835Z,87.50
2022-10-25T23:32:38.873Z,87.50
2022-10-25T23:35:05.650Z,87.62
2022-10-25T23:37:32.044Z,87.55
2022-10-25T23:39:58.415Z,87.31
2022-10-25T23:42:24.868Z,87.07
2022-10-25T23:44:51.259Z,87.01
2022-10-25T23:47:17.613Z,87.24
2022-10-25T23:49:44.045Z,87.85
2022-10-25T23:52:10.411Z,87.96
2022-10-25T23:54:36.767Z,88.34
2022-10-25T23:57:03.341Z,88.59
2022-10-25T23:59:29.699Z,88.53
